sensor_id;sensor_type;location;lat;lon;timestamp;temperature;humidity
7648;DHT22;3866;48.020;11.720;2023-12-22T00:01:45;6.00;99.90
7648;DHT22;3866;48.020;11.720;2023-12-22T00:04:12;6.00;99.90
7648;DHT22;3866;48.020;11.720;2023-12-22T00:06:40;6.00;99.90
7648;DHT22;3866;48.020;11.720;2023-12-22T00:09:08;6.20;99.90
7648;DHT22;3866;48.020;11.720;2023-12-22T00:11:35;6.30;99.90
7648;DHT22;3866;48.020;11.720;2023-12-22T00:14:02;6.40;99.90
7648;DHT22;3866;48.020;11.720;2023-12-22T00:16:29;6.40;99.90
7648;DHT22;3866;48.020;11.720;2023-12-22T00:18:56;6.50;99.90
7648;DHT22;3866;48.020;11.720;2023-12-22T00:21:23;6.40;99.90
7648;DHT22;3866;48.020;11.720;2023-12-22T00:23:50;6.40;99.90
7648;DHT22;3866;48.020;11.720;2023-12-22T00:26:18;6.30;99.90
7648;DHT22;3866;48.020;11.720;2023-12-22T00:28:45;6.30;99.90
7648;DHT22;3866;48.020;11.720;2023-12-22T00:31:12;5.20;99.90
7648;DHT22;3866;48.020;11.720;2023-12-22T00:33:39;3.90;99.90
7648;DHT22;3866;48.020;11.720;2023-12-22T00:36:06;3.10;99.90
7648;DHT22;3866;48.020;11.720;2023-12-22T00:38:33;2.70;99.90
7648;DHT22;3866;48.020;11.720;2023-12-22T00:40:59;2.50;99.90
7648;DHT22;3866;48.020;11.720;2023-12-22T00:43:28;2.40;99.90
7648;DHT22;3866;48.020;11.720;2023-12-22T00:45:55;2.40;99.90
7648;DHT22;3866;48.020;11.720;2023-12-22T00:48:23;2.20;99.90
7648;DHT22;3866;48.020;11.720;2023-12-22T00:50:49;2.20;99.90
7648;DHT22;3866;48.020;11.720;2023-12-22T00:53:16;2.10;99.90
7648;DHT22;3866;48.020;11.720;2023-12-22T00:55:43;2.00;99.90
7648;DHT22;3866;48.020;11.720;2023-12-22T00:58:11;1.90;99.90
7648;DHT22;3866;48.020;11.720;2023-12-22T01:00:39;1.90;99.90
7648;DHT22;3866;48.020;11.720;2023-12-22T01:03:06;1.90;99.90
7648;DHT22;3866;48.020;11.720;2023-12-22T01:05:33;1.90;99.90
7648;DHT22;3866;48.020;11.720;2023-12-22T01:08:00;1.80;99.90
7648;DHT22;3866;48.020;11.720;2023-12-22T01:10:27;1.80;99.90
7648;DHT22;3866;48.020;11.720;2023-12-22T01:12:53;1.70;99.90
7648;DHT22;3866;48.020;11.720;2023-12-22T01:15:20;1.60;99.90
7648;DHT22;3866;48.020;11.720;2023-12-22T01:17:49;1.60;99.90
7648;DHT22;3866;48.020;11.720;2023-12-22T01:20:17;1.50;99.90
7648;DHT22;3866;48.020;11.720;2023-12-22T01:22:44;1.50;99.90
7648;DHT22;3866;48.020;11.720;2023-12-22T01:25:11;1.50;99.90
7648;DHT22;3866;48.020;11.720;2023-12-22T01:27:38;1.50;99.90
7648;DHT22;3866;48.020;11.720;2023-12-22T01:30:07;1.50;99.90
7648;DHT22;3866;48.020;11.720;2023-12-22T01:32:34;1.50;99.90
7648;DHT22;3866;48.020;11.720;2023-12-22T01:35:04;1.50;99.90
7648;DHT22;3866;48.020;11.720;2023-12-22T01:37:35;1.40;99.90
7648;DHT22;3866;48.020;11.720;2023-12-22T01:40:03;1.40;99.90
7648;DHT22;3866;48.020;11.720;2023-12-22T01:42:30;1.40;99.90
7648;DHT22;3866;48.020;11.720;2023-12-22T01:44:57;1.40;99.90
7648;DHT22;3866;48.020;11.720;2023-12-22T01:47:24;1.30;99.90
7648;DHT22;3866;48.020;11.720;2023-12-22T01:49:52;1.30;99.90
7648;DHT22;3866;48.020;11.720;2023-12-22T01:52:21;1.30;99.90
7648;DHT22;3866;48.020;11.720;2023-12-22T01:54:49;1.30;99.90
7648;DHT22;3866;48.020;11.720;2023-12-22T01:57:17;1.30;99.90
7648;DHT22;3866;48.020;11.720;2023-12-22T01:59:46;1.30;99.90
7648;DHT22;3866;48.020;11.720;2023-12-22T02:02:15;1.20;99.90
7648;DHT22;3866;48.020;11.720;2023-12-22T02:04:43;1.20;99.90
7648;DHT22;3866;48.020;11.720;2023-12-22T02:07:12;1.20;99.90
7648;DHT22;3866;48.020;11.720;2023-12-22T02:09:44;1.20;99.90
7648;DHT22;3866;48.020;11.720;2023-12-22T02:12:11;1.20;99.90
7648;DHT22;3866;48.020;11.720;2023-12-22T02:14:38;1.20;99.90
7648;DHT22;3866;48.020;11.720;2023-12-22T02:17:10;1.20;99.90
7648;DHT22;3866;48.020;11.720;2023-12-22T02:19:42;1.30;99.90
7648;DHT22;3866;48.020;11.720;2023-12-22T02:22:10;1.30;99.90
7648;DHT22;3866;48.020;11.720;2023-12-22T02:24:40;1.30;99.90
7648;DHT22;3866;48.020;11.720;2023-12-22T02:27:15;1.30;99.90
7648;DHT22;3866;48.020;11.720;2023-12-22T02:29:48;1.30;99.90
7648;DHT22;3866;48.020;11.720;2023-12-22T02:32:22;1.20;99.90
7648;DHT22;3866;48.020;11.720;2023-12-22T02:34:52;1.20;99.90
7648;DHT22;3866;48.020;11.720;2023-12-22T02:37:20;1.20;99.90
7648;DHT22;3866;48.020;11.720;2023-12-22T02:39:50;1.20;99.90
7648;DHT22;3866;48.020;11.720;2023-12-22T02:42:18;1.10;99.90
7648;DHT22;3866;48.020;11.720;2023-12-22T02:44:49;1.10;99.90
7648;DHT22;3866;48.020;11.720;2023-12-22T02:47:16;1.10;99.90
7648;DHT22;3866;48.020;11.720;2023-12-22T02:49:43;1.10;99.90
7648;DHT22;3866;48.020;11.720;2023-12-22T02:52:10;1.20;99.90
7648;DHT22;3866;48.020;11.720;2023-12-22T02:54:37;1.20;99.90
7648;DHT22;3866;48.020;11.720;2023-12-22T02:57:07;1.20;99.90
7648;DHT22;3866;48.020;11.720;2023-12-22T02:59:34;1.30;99.90
7648;DHT22;3866;48.020;11.720;2023-12-22T03:02:01;1.30;99.90
7648;DHT22;3866;48.020;11.720;2023-12-22T03:04:28;1.30;99.90
7648;DHT22;3866;48.020;11.720;2023-12-22T03:06:55;1.40;99.90
7648;DHT22;3866;48.020;11.720;2023-12-22T03:09:21;1.30;99.90
7648;DHT22;3866;48.020;11.720;2023-12-22T03:11:50;1.40;99.90
7648;DHT22;3866;48.020;11.720;2023-12-22T03:14:21;1.40;99.90
7648;DHT22;3866;48.020;11.720;2023-12-22T03:16:48;1.40;99.90
7648;DHT22;3866;48.020;11.720;2023-12-22T03:19:15;1.40;99.90
7648;DHT22;3866;48.020;11.720;2023-12-22T03:21:42;1.50;99.90
7648;DHT22;3866;48.020;11.720;2023-12-22T03:24:09;1.40;99.90
7648;DHT22;3866;48.020;11.720;2023-12-22T03:26:36;1.40;99.90
7648;DHT22;3866;48.020;11.720;2023-12-22T03:29:03;1.50;99.90
7648;DHT22;3866;48.020;11.720;2023-12-22T03:31:32;1.50;99.90
7648;DHT22;3866;48.020;11.720;2023-12-22T03:33:58;1.50;99.90
7648;DHT22;3866;48.020;11.720;2023-12-22T03:36:25;1.50;99.90
7648;DHT22;3866;48.020;11.720;2023-12-22T03:38:52;1.50;99.90
7648;DHT22;3866;48.020;11.720;2023-12-22T03:41:19;1.60;99.90
7648;DHT22;3866;48.020;11.720;2023-12-22T03:43:46;1.60;99.90
7648;DHT22;3866;48.020;11.720;2023-12-22T03:46:13;1.60;99.90
7648;DHT22;3866;48.020;11.720;2023-12-22T03:48:41;1.60;99.90
7648;DHT22;3866;48.020;11.720;2023-12-22T03:51:08;1.60;99.90
7648;DHT22;3866;48.020;11.720;2023-12-22T03:53:36;1.60;99.90
7648;DHT22;3866;48.020;11.720;2023-12-22T03:56:03;1.70;99.90
7648;DHT22;3866;48.020;11.720;2023-12-22T03:58:30;1.80;99.90
7648;DHT22;3866;48.020;11.720;2023-12-22T04:00:57;2.00;99.90
7648;DHT22;3866;48.020;11.720;2023-12-22T04:03:24;2.10;99.90
7648;DHT22;3866;48.020;11.720;2023-12-22T04:05:53;2.30;99.90
7648;DHT22;3866;48.020;11.720;2023-12-22T04:08:20;2.50;99.90
7648;DHT22;3866;48.020;11.720;2023-12-22T04:10:47;2.60;99.90
7648;DHT22;3866;48.020;11.720;2023-12-22T04:13:14;2.80;99.90
7648;DHT22;3866;48.020;11.720;2023-12-22T04:15:41;2.90;99.90
7648;DHT22;3866;48.020;11.720;2023-12-22T04:18:08;3.10;99.90
7648;DHT22;3866;48.020;11.720;2023-12-22T04:20:34;3.20;99.90
7648;DHT22;3866;48.020;11.720;2023-12-22T04:23:03;3.30;99.90
7648;DHT22;3866;48.020;11.720;2023-12-22T04:25:30;3.40;99.90
7648;DHT22;3866;48.020;11.720;2023-12-22T04:27:57;3.40;99.90
7648;DHT22;3866;48.020;11.720;2023-12-22T04:30:24;3.40;99.90
7648;DHT22;3866;48.020;11.720;2023-12-22T04:32:52;3.60;99.90
7648;DHT22;3866;48.020;11.720;2023-12-22T04:35:19;3.50;99.90
7648;DHT22;3866;48.020;11.720;2023-12-22T04:37:46;3.60;99.90
7648;DHT22;3866;48.020;11.720;2023-12-22T04:40:14;3.60;99.90
7648;DHT22;3866;48.020;11.720;2023-12-22T04:42:42;3.60;99.90
7648;DHT22;3866;48.020;11.720;2023-12-22T04:45:09;3.70;99.90
7648;DHT22;3866;48.020;11.720;2023-12-22T04:47:36;3.70;99.90
7648;DHT22;3866;48.020;11.720;2023-12-22T04:50:03;3.70;99.90
7648;DHT22;3866;48.020;11.720;2023-12-22T04:52:30;3.70;99.90
7648;DHT22;3866;48.020;11.720;2023-12-22T04:54:57;3.80;99.90
7648;DHT22;3866;48.020;11.720;2023-12-22T04:57:25;3.80;99.90
7648;DHT22;3866;48.020;11.720;2023-12-22T04:59:52;3.90;99.90
7648;DHT22;3866;48.020;11.720;2023-12-22T05:02:20;4.00;99.90
7648;DHT22;3866;48.020;11.720;2023-12-22T05:04:47;4.00;99.90
7648;DHT22;3866;48.020;11.720;2023-12-22T05:07:16;4.00;99.90
7648;DHT22;3866;48.020;11.720;2023-12-22T05:09:43;4.10;99.90
7648;DHT22;3866;48.020;11.720;2023-12-22T05:12:10;4.20;99.90
7648;DHT22;3866;48.020;11.720;2023-12-22T05:14:38;4.20;99.90
7648;DHT22;3866;48.020;11.720;2023-12-22T05:17:05;4.30;99.90
7648;DHT22;3866;48.020;11.720;2023-12-22T05:19:32;4.40;99.90
7648;DHT22;3866;48.020;11.720;2023-12-22T05:21:59;4.40;99.90
7648;DHT22;3866;48.020;11.720;2023-12-22T05:24:26;4.50;99.90
7648;DHT22;3866;48.020;11.720;2023-12-22T05:26:53;4.50;99.90
7648;DHT22;3866;48.020;11.720;2023-12-22T05:29:20;4.50;99.90
7648;DHT22;3866;48.020;11.720;2023-12-22T05:31:48;4.60;99.90
7648;DHT22;3866;48.020;11.720;2023-12-22T05:34:16;4.70;99.90
7648;DHT22;3866;48.020;11.720;2023-12-22T05:36:42;4.60;99.90
7648;DHT22;3866;48.020;11.720;2023-12-22T05:39:10;4.70;99.90
7648;DHT22;3866;48.020;11.720;2023-12-22T05:41:37;4.70;99.90
7648;DHT22;3866;48.020;11.720;2023-12-22T05:44:04;4.70;99.90
7648;DHT22;3866;48.020;11.720;2023-12-22T05:46:35;4.80;99.90
7648;DHT22;3866;48.020;11.720;2023-12-22T05:49:04;4.80;99.90
7648;DHT22;3866;48.020;11.720;2023-12-22T05:51:36;4.80;99.90
7648;DHT22;3866;48.020;11.720;2023-12-22T05:54:04;4.80;99.90
7648;DHT22;3866;48.020;11.720;2023-12-22T05:56:31;4.80;99.90
7648;DHT22;3866;48.020;11.720;2023-12-22T05:58:58;4.70;99.90
7648;DHT22;3866;48.020;11.720;2023-12-22T06:01:25;4.50;99.90
7648;DHT22;3866;48.020;11.720;2023-12-22T06:03:52;4.50;99.90
7648;DHT22;3866;48.020;11.720;2023-12-22T06:06:21;4.40;99.90
7648;DHT22;3866;48.020;11.720;2023-12-22T06:08:48;4.30;99.90
7648;DHT22;3866;48.020;11.720;2023-12-22T06:11:15;4.30;99.90
7648;DHT22;3866;48.020;11.720;2023-12-22T06:13:42;4.20;99.90
7648;DHT22;3866;48.020;11.720;2023-12-22T06:16:12;4.20;99.90
7648;DHT22;3866;48.020;11.720;2023-12-22T06:18:44;4.20;99.90
7648;DHT22;3866;48.020;11.720;2023-12-22T06:21:10;4.20;99.90
7648;DHT22;3866;48.020;11.720;2023-12-22T06:23:39;4.20;99.90
7648;DHT22;3866;48.020;11.720;2023-12-22T06:26:08;4.20;99.90
7648;DHT22;3866;48.020;11.720;2023-12-22T06:28:36;4.10;99.90
7648;DHT22;3866;48.020;11.720;2023-12-22T06:31:05;4.10;99.90
7648;DHT22;3866;48.020;11.720;2023-12-22T06:33:32;4.10;99.90
7648;DHT22;3866;48.020;11.720;2023-12-22T06:35:59;4.20;99.90
7648;DHT22;3866;48.020;11.720;2023-12-22T06:38:26;4.20;99.90
7648;DHT22;3866;48.020;11.720;2023-12-22T06:40:54;4.30;99.90
7648;DHT22;3866;48.020;11.720;2023-12-22T06:43:21;4.30;99.90
7648;DHT22;3866;48.020;11.720;2023-12-22T06:45:50;4.30;99.90
7648;DHT22;3866;48.020;11.720;2023-12-22T06:48:20;4.30;99.90
7648;DHT22;3866;48.020;11.720;2023-12-22T06:50:47;4.40;99.90
7648;DHT22;3866;48.020;11.720;2023-12-22T06:53:14;4.50;99.90
7648;DHT22;3866;48.020;11.720;2023-12-22T06:55:41;4.50;99.90
7648;DHT22;3866;48.020;11.720;2023-12-22T06:58:09;4.60;99.90
7648;DHT22;3866;48.020;11.720;2023-12-22T07:00:36;4.60;99.90
7648;DHT22;3866;48.020;11.720;2023-12-22T07:03:04;4.70;99.90
7648;DHT22;3866;48.020;11.720;2023-12-22T07:05:34;4.80;99.90
7648;DHT22;3866;48.020;11.720;2023-12-22T07:08:03;4.80;99.90
7648;DHT22;3866;48.020;11.720;2023-12-22T07:10:31;4.80;99.90
7648;DHT22;3866;48.020;11.720;2023-12-22T07:12:58;4.80;99.90
7648;DHT22;3866;48.020;11.720;2023-12-22T07:15:26;4.80;99.90
7648;DHT22;3866;48.020;11.720;2023-12-22T07:17:54;4.80;99.90
7648;DHT22;3866;48.020;11.720;2023-12-22T07:20:21;4.90;99.90
7648;DHT22;3866;48.020;11.720;2023-12-22T07:22:47;4.90;99.90
7648;DHT22;3866;48.020;11.720;2023-12-22T07:25:15;5.00;99.90
7648;DHT22;3866;48.020;11.720;2023-12-22T07:27:45;5.00;99.90
7648;DHT22;3866;48.020;11.720;2023-12-22T07:30:13;5.00;99.90
7648;DHT22;3866;48.020;11.720;2023-12-22T07:32:43;5.00;99.90
7648;DHT22;3866;48.020;11.720;2023-12-22T07:35:13;5.00;99.90
7648;DHT22;3866;48.020;11.720;2023-12-22T07:37:40;4.90;99.90
7648;DHT22;3866;48.020;11.720;2023-12-22T07:40:08;4.80;99.90
7648;DHT22;3866;48.020;11.720;2023-12-22T07:42:35;4.80;99.90
7648;DHT22;3866;48.020;11.720;2023-12-22T07:45:04;4.70;99.90
7648;DHT22;3866;48.020;11.720;2023-12-22T07:47:31;4.70;99.90
7648;DHT22;3866;48.020;11.720;2023-12-22T07:49:59;4.80;99.90
7648;DHT22;3866;48.020;11.720;2023-12-22T07:52:26;4.80;99.90
7648;DHT22;3866;48.020;11.720;2023-12-22T07:54:53;4.80;99.90
7648;DHT22;3866;48.020;11.720;2023-12-22T07:57:20;4.80;99.90
7648;DHT22;3866;48.020;11.720;2023-12-22T07:59:47;4.80;99.90
7648;DHT22;3866;48.020;11.720;2023-12-22T08:02:13;4.80;99.90
7648;DHT22;3866;48.020;11.720;2023-12-22T08:04:40;4.90;99.90
7648;DHT22;3866;48.020;11.720;2023-12-22T08:07:09;4.90;99.90
7648;DHT22;3866;48.020;11.720;2023-12-22T08:09:36;5.00;99.90
7648;DHT22;3866;48.020;11.720;2023-12-22T08:12:03;5.10;99.90
7648;DHT22;3866;48.020;11.720;2023-12-22T08:14:30;5.20;99.90
7648;DHT22;3866;48.020;11.720;2023-12-22T08:16:57;5.30;99.90
7648;DHT22;3866;48.020;11.720;2023-12-22T08:19:24;5.40;99.90
7648;DHT22;3866;48.020;11.720;2023-12-22T08:21:52;5.40;99.90
7648;DHT22;3866;48.020;11.720;2023-12-22T08:24:20;5.20;99.90
7648;DHT22;3866;48.020;11.720;2023-12-22T08:26:47;5.00;99.90
7648;DHT22;3866;48.020;11.720;2023-12-22T08:29:14;4.70;99.90
7648;DHT22;3866;48.020;11.720;2023-12-22T08:31:41;4.50;99.90
7648;DHT22;3866;48.020;11.720;2023-12-22T08:34:09;4.50;99.90
7648;DHT22;3866;48.020;11.720;2023-12-22T08:36:36;4.40;99.90
7648;DHT22;3866;48.020;11.720;2023-12-22T08:39:03;4.30;99.90
7648;DHT22;3866;48.020;11.720;2023-12-22T08:41:32;4.30;99.90
7648;DHT22;3866;48.020;11.720;2023-12-22T08:44:01;4.20;99.90
7648;DHT22;3866;48.020;11.720;2023-12-22T08:46:28;4.30;99.90
7648;DHT22;3866;48.020;11.720;2023-12-22T08:48:56;4.50;99.90
7648;DHT22;3866;48.020;11.720;2023-12-22T08:51:24;4.70;99.90
7648;DHT22;3866;48.020;11.720;2023-12-22T08:53:52;4.80;99.90
7648;DHT22;3866;48.020;11.720;2023-12-22T08:56:20;4.80;99.90
7648;DHT22;3866;48.020;11.720;2023-12-22T08:58:50;4.80;99.90
7648;DHT22;3866;48.020;11.720;2023-12-22T09:01:18;4.80;99.90
7648;DHT22;3866;48.020;11.720;2023-12-22T09:03:45;4.80;99.90
7648;DHT22;3866;48.020;11.720;2023-12-22T09:06:14;4.70;99.90
7648;DHT22;3866;48.020;11.720;2023-12-22T09:08:41;4.70;99.90
7648;DHT22;3866;48.020;11.720;2023-12-22T09:11:08;4.70;99.90
7648;DHT22;3866;48.020;11.720;2023-12-22T09:13:43;4.80;99.90
7648;DHT22;3866;48.020;11.720;2023-12-22T09:16:22;4.80;99.90
7648;DHT22;3866;48.020;11.720;2023-12-22T09:18:50;4.90;99.90
7648;DHT22;3866;48.020;11.720;2023-12-22T09:21:17;4.90;99.90
7648;DHT22;3866;48.020;11.720;2023-12-22T09:23:44;5.00;99.90
7648;DHT22;3866;48.020;11.720;2023-12-22T09:26:12;5.00;99.90
7648;DHT22;3866;48.020;11.720;2023-12-22T09:28:39;5.10;99.90
7648;DHT22;3866;48.020;11.720;2023-12-22T09:31:07;5.10;99.90
7648;DHT22;3866;48.020;11.720;2023-12-22T09:33:35;5.10;99.90
7648;DHT22;3866;48.020;11.720;2023-12-22T09:36:03;5.20;99.90
7648;DHT22;3866;48.020;11.720;2023-12-22T09:38:29;5.20;99.90
7648;DHT22;3866;48.020;11.720;2023-12-22T09:40:57;5.20;99.90
7648;DHT22;3866;48.020;11.720;2023-12-22T09:43:24;5.20;99.90
7648;DHT22;3866;48.020;11.720;2023-12-22T09:45:51;5.30;99.90
7648;DHT22;3866;48.020;11.720;2023-12-22T09:48:20;5.50;99.90
7648;DHT22;3866;48.020;11.720;2023-12-22T09:50:55;5.50;99.90
7648;DHT22;3866;48.020;11.720;2023-12-22T09:53:23;5.40;99.90
7648;DHT22;3866;48.020;11.720;2023-12-22T09:55:51;5.40;99.90
7648;DHT22;3866;48.020;11.720;2023-12-22T09:58:19;5.40;99.90
7648;DHT22;3866;48.020;11.720;2023-12-22T10:00:47;5.40;99.90
7648;DHT22;3866;48.020;11.720;2023-12-22T10:03:16;5.40;99.90
7648;DHT22;3866;48.020;11.720;2023-12-22T10:05:45;5.30;99.90
7648;DHT22;3866;48.020;11.720;2023-12-22T10:08:14;5.20;99.90
7648;DHT22;3866;48.020;11.720;2023-12-22T10:10:41;5.10;99.90
7648;DHT22;3866;48.020;11.720;2023-12-22T10:13:10;4.90;99.90
7648;DHT22;3866;48.020;11.720;2023-12-22T10:15:39;4.70;99.90
7648;DHT22;3866;48.020;11.720;2023-12-22T10:18:07;4.60;99.90
7648;DHT22;3866;48.020;11.720;2023-12-22T10:20:35;4.50;99.90
7648;DHT22;3866;48.020;11.720;2023-12-22T10:23:02;4.50;99.90
7648;DHT22;3866;48.020;11.720;2023-12-22T10:25:30;4.40;99.90
7648;DHT22;3866;48.020;11.720;2023-12-22T10:27:58;4.30;99.90
7648;DHT22;3866;48.020;11.720;2023-12-22T10:30:25;4.20;99.90
7648;DHT22;3866;48.020;11.720;2023-12-22T10:32:54;4.20;99.90
7648;DHT22;3866;48.020;11.720;2023-12-22T10:35:21;4.30;99.90
7648;DHT22;3866;48.020;11.720;2023-12-22T10:37:49;4.20;99.90
7648;DHT22;3866;48.020;11.720;2023-12-22T10:40:18;4.00;99.90
7648;DHT22;3866;48.020;11.720;2023-12-22T10:42:48;3.90;99.90
7648;DHT22;3866;48.020;11.720;2023-12-22T10:45:15;3.90;99.90
7648;DHT22;3866;48.020;11.720;2023-12-22T10:47:43;3.90;99.90
7648;DHT22;3866;48.020;11.720;2023-12-22T10:50:12;3.80;99.90
7648;DHT22;3866;48.020;11.720;2023-12-22T10:52:39;3.80;99.90
7648;DHT22;3866;48.020;11.720;2023-12-22T10:55:06;3.80;99.90
7648;DHT22;3866;48.020;11.720;2023-12-22T10:57:33;3.80;99.90
7648;DHT22;3866;48.020;11.720;2023-12-22T11:00:07;3.90;99.90
7648;DHT22;3866;48.020;11.720;2023-12-22T11:02:35;4.00;99.90
7648;DHT22;3866;48.020;11.720;2023-12-22T11:05:04;4.20;99.90
7648;DHT22;3866;48.020;11.720;2023-12-22T11:07:33;4.40;99.90
7648;DHT22;3866;48.020;11.720;2023-12-22T11:10:03;4.60;99.90
7648;DHT22;3866;48.020;11.720;2023-12-22T11:12:32;4.80;99.90
7648;DHT22;3866;48.020;11.720;2023-12-22T11:15:00;4.90;99.90
7648;DHT22;3866;48.020;11.720;2023-12-22T11:17:31;5.00;99.90
7648;DHT22;3866;48.020;11.720;2023-12-22T11:19:59;5.00;99.90
7648;DHT22;3866;48.020;11.720;2023-12-22T11:22:26;5.10;99.90
7648;DHT22;3866;48.020;11.720;2023-12-22T11:24:53;5.10;99.90
7648;DHT22;3866;48.020;11.720;2023-12-22T11:27:23;5.00;99.90
7648;DHT22;3866;48.020;11.720;2023-12-22T11:29:52;5.10;99.90
7648;DHT22;3866;48.020;11.720;2023-12-22T11:32:19;5.10;99.90
7648;DHT22;3866;48.020;11.720;2023-12-22T11:34:48;5.10;99.90
7648;DHT22;3866;48.020;11.720;2023-12-22T11:37:16;5.20;99.90
7648;DHT22;3866;48.020;11.720;2023-12-22T11:39:43;5.20;99.90
7648;DHT22;3866;48.020;11.720;2023-12-22T11:42:14;5.20;99.90
7648;DHT22;3866;48.020;11.720;2023-12-22T11:44:43;5.20;99.90
7648;DHT22;3866;48.020;11.720;2023-12-22T11:47:10;5.10;99.90
7648;DHT22;3866;48.020;11.720;2023-12-22T11:49:39;5.20;99.90
7648;DHT22;3866;48.020;11.720;2023-12-22T11:52:14;5.20;99.90
7648;DHT22;3866;48.020;11.720;2023-12-22T11:54:45;5.20;99.90
7648;DHT22;3866;48.020;11.720;2023-12-22T11:57:35;5.10;99.90
7648;DHT22;3866;48.020;11.720;2023-12-22T12:00:07;5.10;99.90
7648;DHT22;3866;48.020;11.720;2023-12-22T12:02:37;5.20;99.90
7648;DHT22;3866;48.020;11.720;2023-12-22T12:05:08;5.10;99.90
7648;DHT22;3866;48.020;11.720;2023-12-22T12:07:44;5.10;99.90
7648;DHT22;3866;48.020;11.720;2023-12-22T12:10:12;5.10;99.90
7648;DHT22;3866;48.020;11.720;2023-12-22T12:12:40;5.10;99.90
7648;DHT22;3866;48.020;11.720;2023-12-22T12:15:08;5.10;99.90
7648;DHT22;3866;48.020;11.720;2023-12-22T12:17:40;5.10;99.90
7648;DHT22;3866;48.020;11.720;2023-12-22T12:20:09;5.20;99.90
7648;DHT22;3866;48.020;11.720;2023-12-22T12:22:36;5.20;99.90
7648;DHT22;3866;48.020;11.720;2023-12-22T12:25:08;5.20;99.90
7648;DHT22;3866;48.020;11.720;2023-12-22T12:27:37;5.20;99.90
7648;DHT22;3866;48.020;11.720;2023-12-22T12:30:11;5.20;99.90
7648;DHT22;3866;48.020;11.720;2023-12-22T12:32:40;5.20;99.90
7648;DHT22;3866;48.020;11.720;2023-12-22T12:35:08;5.30;99.90
7648;DHT22;3866;48.020;11.720;2023-12-22T12:37:36;5.20;99.90
7648;DHT22;3866;48.020;11.720;2023-12-22T12:40:09;5.20;99.90
7648;DHT22;3866;48.020;11.720;2023-12-22T12:42:38;5.20;99.90
7648;DHT22;3866;48.020;11.720;2023-12-22T12:45:05;5.20;99.90
7648;DHT22;3866;48.020;11.720;2023-12-22T12:47:32;5.20;99.90
7648;DHT22;3866;48.020;11.720;2023-12-22T12:50:00;5.30;99.90
7648;DHT22;3866;48.020;11.720;2023-12-22T12:52:27;5.30;99.90
7648;DHT22;3866;48.020;11.720;2023-12-22T12:54:54;5.30;99.90
7648;DHT22;3866;48.020;11.720;2023-12-22T12:57:25;5.40;99.90
7648;DHT22;3866;48.020;11.720;2023-12-22T12:59:52;5.40;99.90
7648;DHT22;3866;48.020;11.720;2023-12-22T13:02:19;5.40;99.90
7648;DHT22;3866;48.020;11.720;2023-12-22T13:04:48;5.50;99.90
7648;DHT22;3866;48.020;11.720;2023-12-22T13:07:24;5.50;99.90
7648;DHT22;3866;48.020;11.720;2023-12-22T13:09:50;5.50;99.90
7648;DHT22;3866;48.020;11.720;2023-12-22T13:12:19;5.50;99.90
7648;DHT22;3866;48.020;11.720;2023-12-22T13:14:48;5.40;99.90
7648;DHT22;3866;48.020;11.720;2023-12-22T13:17:16;5.30;99.90
7648;DHT22;3866;48.020;11.720;2023-12-22T13:19:43;5.30;99.90
7648;DHT22;3866;48.020;11.720;2023-12-22T13:22:10;5.30;99.90
7648;DHT22;3866;48.020;11.720;2023-12-22T13:24:37;5.20;99.90
7648;DHT22;3866;48.020;11.720;2023-12-22T13:27:05;5.20;99.90
7648;DHT22;3866;48.020;11.720;2023-12-22T13:29:42;5.10;99.90
7648;DHT22;3866;48.020;11.720;2023-12-22T13:32:16;5.10;99.90
7648;DHT22;3866;48.020;11.720;2023-12-22T13:34:50;5.00;99.90
7648;DHT22;3866;48.020;11.720;2023-12-22T13:37:17;5.10;99.90
7648;DHT22;3866;48.020;11.720;2023-12-22T13:39:45;5.00;99.90
7648;DHT22;3866;48.020;11.720;2023-12-22T13:42:15;5.10;99.90
7648;DHT22;3866;48.020;11.720;2023-12-22T13:44:43;5.00;99.90
7648;DHT22;3866;48.020;11.720;2023-12-22T13:47:14;5.00;99.90
7648;DHT22;3866;48.020;11.720;2023-12-22T13:49:42;5.00;99.90
7648;DHT22;3866;48.020;11.720;2023-12-22T13:52:24;5.00;99.90
7648;DHT22;3866;48.020;11.720;2023-12-22T13:54:52;5.00;99.90
7648;DHT22;3866;48.020;11.720;2023-12-22T13:57:22;5.00;99.90
7648;DHT22;3866;48.020;11.720;2023-12-22T13:59:49;5.10;99.90
7648;DHT22;3866;48.020;11.720;2023-12-22T14:02:20;5.10;99.90
7648;DHT22;3866;48.020;11.720;2023-12-22T14:04:47;5.10;99.90
7648;DHT22;3866;48.020;11.720;2023-12-22T14:07:14;5.20;99.90
7648;DHT22;3866;48.020;11.720;2023-12-22T14:09:41;5.20;99.90
7648;DHT22;3866;48.020;11.720;2023-12-22T14:12:08;5.20;99.90
7648;DHT22;3866;48.020;11.720;2023-12-22T14:14:35;5.30;99.90
7648;DHT22;3866;48.020;11.720;2023-12-22T14:17:02;5.20;99.90
7648;DHT22;3866;48.020;11.720;2023-12-22T14:19:30;5.20;99.90
7648;DHT22;3866;48.020;11.720;2023-12-22T14:21:57;5.20;99.90
7648;DHT22;3866;48.020;11.720;2023-12-22T14:24:24;5.30;99.90
7648;DHT22;3866;48.020;11.720;2023-12-22T14:26:56;5.30;99.90
7648;DHT22;3866;48.020;11.720;2023-12-22T14:29:23;5.30;99.90
7648;DHT22;3866;48.020;11.720;2023-12-22T14:31:50;5.30;99.90
7648;DHT22;3866;48.020;11.720;2023-12-22T14:34:17;5.30;99.90
7648;DHT22;3866;48.020;11.720;2023-12-22T14:36:46;5.30;99.90
7648;DHT22;3866;48.020;11.720;2023-12-22T14:39:13;5.30;99.90
7648;DHT22;3866;48.020;11.720;2023-12-22T14:41:40;5.30;99.90
7648;DHT22;3866;48.020;11.720;2023-12-22T14:44:08;5.40;99.90
7648;DHT22;3866;48.020;11.720;2023-12-22T14:46:37;5.30;99.90
7648;DHT22;3866;48.020;11.720;2023-12-22T14:49:06;5.30;99.90
7648;DHT22;3866;48.020;11.720;2023-12-22T14:51:36;5.30;99.90
7648;DHT22;3866;48.020;11.720;2023-12-22T14:54:05;5.40;99.90
7648;DHT22;3866;48.020;11.720;2023-12-22T14:56:32;5.40;99.90
7648;DHT22;3866;48.020;11.720;2023-12-22T14:58:59;5.40;99.90
7648;DHT22;3866;48.020;11.720;2023-12-22T15:01:26;5.50;99.90
7648;DHT22;3866;48.020;11.720;2023-12-22T15:03:54;5.50;99.90
7648;DHT22;3866;48.020;11.720;2023-12-22T15:06:20;5.60;99.90
7648;DHT22;3866;48.020;11.720;2023-12-22T15:08:47;5.60;99.90
7648;DHT22;3866;48.020;11.720;2023-12-22T15:11:16;5.60;99.90
7648;DHT22;3866;48.020;11.720;2023-12-22T15:13:42;5.60;99.90
7648;DHT22;3866;48.020;11.720;2023-12-22T15:16:09;5.60;99.90
7648;DHT22;3866;48.020;11.720;2023-12-22T15:18:36;5.70;99.90
7648;DHT22;3866;48.020;11.720;2023-12-22T15:21:04;5.70;99.90
7648;DHT22;3866;48.020;11.720;2023-12-22T15:23:30;5.60;99.90
7648;DHT22;3866;48.020;11.720;2023-12-22T15:25:57;5.60;99.90
7648;DHT22;3866;48.020;11.720;2023-12-22T15:28:26;5.60;99.90
7648;DHT22;3866;48.020;11.720;2023-12-22T15:30:53;5.60;99.90
7648;DHT22;3866;48.020;11.720;2023-12-22T15:33:19;5.60;99.90
7648;DHT22;3866;48.020;11.720;2023-12-22T15:35:46;5.60;99.90
7648;DHT22;3866;48.020;11.720;2023-12-22T15:38:14;5.60;99.90
7648;DHT22;3866;48.020;11.720;2023-12-22T15:40:41;5.60;99.90
7648;DHT22;3866;48.020;11.720;2023-12-22T15:43:08;5.70;99.90
7648;DHT22;3866;48.020;11.720;2023-12-22T15:45:36;5.70;99.90
7648;DHT22;3866;48.020;11.720;2023-12-22T15:48:03;5.70;99.90
7648;DHT22;3866;48.020;11.720;2023-12-22T15:50:30;5.70;99.90
7648;DHT22;3866;48.020;11.720;2023-12-22T15:52:57;5.70;99.90
7648;DHT22;3866;48.020;11.720;2023-12-22T15:55:24;5.80;99.90
7648;DHT22;3866;48.020;11.720;2023-12-22T15:57:51;5.80;99.90
7648;DHT22;3866;48.020;11.720;2023-12-22T16:00:18;5.80;99.90
7648;DHT22;3866;48.020;11.720;2023-12-22T16:02:46;5.80;99.90
7648;DHT22;3866;48.020;11.720;2023-12-22T16:05:13;5.90;99.90
7648;DHT22;3866;48.020;11.720;2023-12-22T16:07:40;5.90;99.90